Terminal Aerodrome Forecast
Issued by NWS Cleveland, OH

Home | Current Version | Previous Version | Graphics & Text | Print | Product List | Glossary On
Versions: 1 2 3 4 5 6 7 8 9 10 11 12 13 14 15
000
FTUS41 KCLE 181100 AAB
TAFYNG
TAF AMD
KYNG 181104Z 1811/1906 00000KT 1SM BR SKC
      TEMPO 1811/1812 1/4SM FG SCT001
     FM181230 01004KT 5SM BR SCT045
     FM181400 01006KT P6SM SCT045=

USA.gov is the U.S. government's official web portal to all federal, state and local government web resources and services.